Aviation Digital Data Service (ADDS)

Output produced by METARs form (1911 UTC 03 September 2015)
found at http://www.aviationweather.gov/adds/metars/
 
KPHL 031815Z 0318/0424 33010KT P6SM FEW060 SCT250 
     FM032100 36005KT P6SM FEW060 SCT250 
     FM040000 16007KT P6SM SCT060 
     FM040200 VRB03KT P6SM SCT050 
     FM041100 04007KT P6SM SCT035 BKN150 
     FM041400 07012KT P6SM SCT025 BKN035 
     FM042100 10013KT P6SM SCT040